createdAt,value
2018-04-01T00:01:04.089Z,23.30
2018-04-01T00:03:31.716Z,23.00
2018-04-01T00:05:59.328Z,21.27
2018-04-01T00:08:26.988Z,20.50
2018-04-01T00:10:54.585Z,20.62
2018-04-01T00:13:22.295Z,19.42
2018-04-01T00:15:49.877Z,19.80
2018-04-01T00:18:17.474Z,19.30
2018-04-01T00:20:45.083Z,19.30
2018-04-01T00:23:12.771Z,20.73
2018-04-01T00:25:40.447Z,19.37
2018-04-01T00:28:08.108Z,19.20
2018-04-01T00:30:35.701Z,20.77
2018-04-01T00:33:03.347Z,21.58
2018-04-01T00:35:30.969Z,21.17
2018-04-01T00:37:58.580Z,20.40
2018-04-01T00:40:26.192Z,20.33
2018-04-01T00:42:53.824Z,19.53
2018-04-01T00:45:21.461Z,19.55
2018-04-01T00:47:49.061Z,17.23
2018-04-01T00:50:16.670Z,20.30
2018-04-01T00:52:44.256Z,18.77
2018-04-01T00:55:11.872Z,18.80
2018-04-01T00:57:39.484Z,18.80
2018-04-01T01:00:07.076Z,18.63
2018-04-01T01:02:34.685Z,18.60
2018-04-01T01:05:02.299Z,18.40
2018-04-01T01:07:29.895Z,16.97
2018-04-01T01:09:57.491Z,19.20
2018-04-01T01:12:25.090Z,18.13
2018-04-01T01:14:52.742Z,17.00
2018-04-01T01:17:20.324Z,16.20
2018-04-01T01:19:47.930Z,15.90
2018-04-01T01:22:15.559Z,15.07
2018-04-01T01:24:43.160Z,17.60
2018-04-01T01:27:10.796Z,16.60
2018-04-01T01:29:41.587Z,16.17
2018-04-01T01:32:09.182Z,16.58
2018-04-01T01:34:36.784Z,15.97
2018-04-01T01:37:04.385Z,15.67
2018-04-01T01:39:31.993Z,15.60
2018-04-01T01:41:59.647Z,16.80
2018-04-01T01:44:27.248Z,17.30
2018-04-01T01:46:58.068Z,16.27
2018-04-01T01:49:25.824Z,17.95
2018-04-01T01:51:53.424Z,17.83
2018-04-01T01:54:21.021Z,16.60
2018-04-01T01:56:48.635Z,17.23
2018-04-01T01:59:16.255Z,16.00
2018-04-01T02:01:43.839Z,16.50
2018-04-01T02:04:11.447Z,16.23
2018-04-01T02:06:39.047Z,14.38
2018-04-01T02:09:06.727Z,14.70
2018-04-01T02:11:34.315Z,14.23
2018-04-01T02:14:01.900Z,14.20
2018-04-01T02:16:29.509Z,14.17
2018-04-01T02:18:57.103Z,13.37
2018-04-01T02:21:24.720Z,13.17
2018-04-01T02:23:52.328Z,14.17
2018-04-01T02:26:19.938Z,13.20
2018-04-01T02:28:47.616Z,14.90
2018-04-01T02:31:15.217Z,14.02
2018-04-01T02:33:42.835Z,13.87
2018-04-01T02:36:10.420Z,13.60
2018-04-01T02:38:38.019Z,13.43
2018-04-01T02:41:05.712Z,14.00
2018-04-01T02:43:33.332Z,13.23
2018-04-01T02:46:00.907Z,13.30
2018-04-01T02:48:28.506Z,13.23
2018-04-01T02:50:56.110Z,15.20
2018-04-01T02:53:23.716Z,12.70
2018-04-01T02:55:51.363Z,14.23
2018-04-01T02:58:19.007Z,13.07
2018-04-01T03:00:46.607Z,13.67
2018-04-01T03:03:14.218Z,13.53
2018-04-01T03:05:41.841Z,13.23
2018-04-01T03:08:09.436Z,16.40
2018-04-01T03:10:37.044Z,12.73
2018-04-01T03:13:04.658Z,13.60
2018-04-01T03:15:32.274Z,13.17
2018-04-01T03:17:59.874Z,14.50
2018-04-01T03:20:28.739Z,13.80
2018-04-01T03:22:56.338Z,13.40
2018-04-01T03:25:23.943Z,14.93
2018-04-01T03:27:51.552Z,13.60
2018-04-01T03:30:19.130Z,15.50
2018-04-01T03:32:46.940Z,14.63
2018-04-01T03:35:14.543Z,14.80
2018-04-01T03:37:42.152Z,15.03
2018-04-01T03:40:09.772Z,14.80
2018-04-01T03:42:37.360Z,14.23
2018-04-01T03:45:04.962Z,15.23
2018-04-01T03:47:32.578Z,14.23
2018-04-01T03:50:00.197Z,14.80
2018-04-01T03:52:27.787Z,16.08
2018-04-01T03:54:55.392Z,17.57
2018-04-01T03:57:22.983Z,16.92
2018-04-01T03:59:50.589Z,18.33
2018-04-01T04:02:18.207Z,16.57
2018-04-01T04:04:45.811Z,16.73
2018-04-01T04:07:13.396Z,19.10
2018-04-01T04:09:41.007Z,18.80
2018-04-01T04:12:08.599Z,19.73
2018-04-01T04:14:36.247Z,19.83
2018-04-01T04:17:03.842Z,19.37
2018-04-01T04:19:31.464Z,19.50
2018-04-01T04:21:59.104Z,20.80
2018-04-01T04:24:26.720Z,19.20
2018-04-01T04:26:54.310Z,18.83
2018-04-01T04:29:21.900Z,21.25
2018-04-01T04:31:49.500Z,20.33
2018-04-01T04:34:17.092Z,20.37
2018-04-01T04:36:44.692Z,20.53
2018-04-01T04:39:12.299Z,20.87
2018-04-01T04:41:39.890Z,20.40
2018-04-01T04:44:07.536Z,20.93
2018-04-01T04:46:35.168Z,21.57
2018-04-01T04:49:02.755Z,21.20
2018-04-01T04:51:30.379Z,21.10
2018-04-01T04:53:58.041Z,19.63
2018-04-01T04:56:25.678Z,21.43
2018-04-01T04:58:53.294Z,20.20
2018-04-01T05:01:20.880Z,19.93
2018-04-01T05:03:48.472Z,20.17
2018-04-01T05:06:16.070Z,19.93
2018-04-01T05:08:43.701Z,20.03
2018-04-01T05:11:11.325Z,19.87
2018-04-01T05:13:38.936Z,19.37
2018-04-01T05:16:06.556Z,18.87
2018-04-01T05:18:34.145Z,19.00
2018-04-01T05:21:01.750Z,18.73
2018-04-01T05:23:29.392Z,19.60
2018-04-01T05:25:56.998Z,17.57
2018-04-01T05:28:24.612Z,18.50
2018-04-01T05:30:52.205Z,18.43
2018-04-01T05:33:19.797Z,18.50
2018-04-01T05:35:47.387Z,18.23
2018-04-01T05:38:14.995Z,16.80
2018-04-01T05:40:42.591Z,17.07
2018-04-01T05:43:10.187Z,16.23
2018-04-01T05:45:37.963Z,17.13
2018-04-01T05:48:06.411Z,15.70
2018-04-01T05:50:34.040Z,15.97
2018-04-01T05:53:01.684Z,17.17
2018-04-01T05:55:29.477Z,16.97
2018-04-01T05:57:57.076Z,13.73
2018-04-01T06:00:24.686Z,15.57
2018-04-01T06:02:52.306Z,14.27
2018-04-01T06:05:19.940Z,13.55
2018-04-01T06:07:47.536Z,15.43
2018-04-01T06:10:15.173Z,15.93
2018-04-01T06:12:42.763Z,14.70
2018-04-01T06:15:10.394Z,15.17
2018-04-01T06:17:38.133Z,14.53
2018-04-01T06:20:05.721Z,16.50
2018-04-01T06:22:33.343Z,14.33
2018-04-01T06:25:00.965Z,14.90
2018-04-01T06:27:28.575Z,14.23
2018-04-01T06:29:56.263Z,14.57
2018-04-01T06:32:23.848Z,15.17
2018-04-01T06:34:51.468Z,15.80
2018-04-01T06:37:19.259Z,15.48
2018-04-01T06:39:46.863Z,15.10
2018-04-01T06:42:14.460Z,15.67
2018-04-01T06:44:42.100Z,15.03
2018-04-01T06:47:09.724Z,14.18
2018-04-01T06:49:37.322Z,12.53
2018-04-01T06:52:04.974Z,14.50
2018-04-01T06:54:32.585Z,15.00
2018-04-01T06:57:00.244Z,27.93
2018-04-01T06:59:27.981Z,14.50
2018-04-01T07:01:55.592Z,19.13
2018-04-01T07:04:23.227Z,12.60
2018-04-01T07:06:50.845Z,12.33
2018-04-01T07:09:18.463Z,13.88
2018-04-01T07:11:46.067Z,12.87
2018-04-01T07:14:13.762Z,12.60
2018-04-01T07:16:41.427Z,16.10
2018-04-01T07:19:09.859Z,13.45
2018-04-01T07:21:37.518Z,10.60
2018-04-01T07:24:05.126Z,11.40
2018-04-01T07:26:32.752Z,11.80
2018-04-01T07:29:00.499Z,10.50
2018-04-01T07:31:28.113Z,11.18
2018-04-01T07:33:55.715Z,11.23
2018-04-01T07:36:23.408Z,10.03
2018-04-01T07:38:50.976Z,9.20
2018-04-01T07:41:18.599Z,10.38
2018-04-01T07:43:46.199Z,10.23
2018-04-01T07:46:13.805Z,8.60
2018-04-01T07:48:41.421Z,10.30
2018-04-01T07:51:09.645Z,9.70
2018-04-01T07:53:37.228Z,9.77
2018-04-01T07:56:04.856Z,9.13
2018-04-01T07:58:32.500Z,9.53
2018-04-01T08:01:00.097Z,10.17
2018-04-01T08:03:28.048Z,9.70
2018-04-01T08:05:55.812Z,9.43
2018-04-01T08:08:23.424Z,9.37
2018-04-01T08:10:56.262Z,9.80
2018-04-01T08:13:39.244Z,9.77
2018-04-01T08:16:06.914Z,9.03
2018-04-01T08:18:34.555Z,9.07
2018-04-01T08:21:02.282Z,8.70
2018-04-01T08:23:30.857Z,9.00
2018-04-01T08:25:58.547Z,8.97
2018-04-01T08:28:27.132Z,8.63
2018-04-01T08:30:54.715Z,7.63
2018-04-01T08:33:22.351Z,8.13
2018-04-01T08:35:50.040Z,9.10
2018-04-01T08:38:17.655Z,8.40
2018-04-01T08:40:45.245Z,8.90
2018-04-01T08:43:13.112Z,8.33
2018-04-01T08:45:40.748Z,8.17
2018-04-01T08:48:08.370Z,9.40
2018-04-01T08:50:36.071Z,8.80
2018-04-01T08:53:04.728Z,8.70
2018-04-01T08:55:32.384Z,9.23
2018-04-01T08:58:00.396Z,8.60
2018-04-01T09:00:28.154Z,9.70
2018-04-01T09:02:57.580Z,8.50
2018-04-01T09:05:26.417Z,9.30
2018-04-01T09:08:02.455Z,9.50
2018-04-01T09:10:30.304Z,9.40
2018-04-01T09:12:57.903Z,10.02
2018-04-01T09:15:25.505Z,9.80
2018-04-01T09:17:53.217Z,9.23
2018-04-01T09:20:20.845Z,9.07
2018-04-01T09:22:48.452Z,8.60
2018-04-01T09:25:17.071Z,8.48
2018-04-01T09:27:44.727Z,8.50
2018-04-01T09:30:14.178Z,8.63
2018-04-01T09:32:43.868Z,8.70
2018-04-01T09:35:11.564Z,7.97
2018-04-01T09:37:39.156Z,7.83
2018-04-01T09:40:07.234Z,8.60
2018-04-01T09:42:35.611Z,7.60
2018-04-01T09:45:03.240Z,7.93
2018-04-01T09:47:31.518Z,7.43
2018-04-01T09:49:59.284Z,8.77
2018-04-01T09:52:27.003Z,7.30
2018-04-01T09:54:54.768Z,7.33
2018-04-01T09:57:22.468Z,8.18
2018-04-01T09:59:50.056Z,8.37
2018-04-01T10:02:18.272Z,7.60
2018-04-01T10:04:46.384Z,7.80
2018-04-01T10:07:21.990Z,8.00
2018-04-01T10:09:50.256Z,7.93
2018-04-01T10:12:18.411Z,7.65
2018-04-01T10:14:46.669Z,7.40
2018-04-01T10:17:15.746Z,8.95
2018-04-01T10:19:43.977Z,7.60
2018-04-01T10:22:12.782Z,6.40
2018-04-01T10:24:40.938Z,8.20
2018-04-01T10:27:09.144Z,8.13
2018-04-01T10:29:37.324Z,8.20
2018-04-01T10:32:06.021Z,8.40
2018-04-01T10:34:34.161Z,7.33
2018-04-01T10:37:02.298Z,7.90
2018-04-01T10:39:30.414Z,8.80
2018-04-01T10:41:58.556Z,8.10
2018-04-01T10:44:26.715Z,7.87
2018-04-01T10:46:55.643Z,7.83
2018-04-01T10:49:24.753Z,8.05
2018-04-01T10:51:52.924Z,7.80
2018-04-01T10:54:20.536Z,8.57
2018-04-01T10:56:48.215Z,9.60
2018-04-01T10:59:15.793Z,8.67
2018-04-01T11:01:43.651Z,8.60
2018-04-01T11:04:11.940Z,7.17
2018-04-01T11:06:39.605Z,7.05
2018-04-01T11:09:07.893Z,7.10
2018-04-01T11:11:35.565Z,6.10
2018-04-01T11:14:04.360Z,5.97
2018-04-01T11:16:34.850Z,5.77
2018-04-01T11:19:04.753Z,5.13
2018-04-01T11:21:33.715Z,5.90
2018-04-01T11:24:15.473Z,5.17
2018-04-01T11:26:51.963Z,5.93
2018-04-01T11:29:28.382Z,5.80
2018-04-01T11:35:49.083Z,6.90
2018-04-01T11:38:16.722Z,7.20
2018-04-01T11:40:44.588Z,6.60
2018-04-01T11:43:13.694Z,6.50
2018-04-01T11:45:41.353Z,7.00
2018-04-01T11:48:09.034Z,7.50
2018-04-01T11:50:38.111Z,7.57
2018-04-01T11:53:09.853Z,6.97
2018-04-01T11:55:37.709Z,6.80
2018-04-01T11:58:07.194Z,7.53
2018-04-01T12:00:34.901Z,7.83
2018-04-01T12:03:02.941Z,7.33
2018-04-01T12:05:30.746Z,7.10
2018-04-01T12:07:59.414Z,8.17
2018-04-01T12:10:36.446Z,7.80
2018-04-01T12:13:05.604Z,6.97
2018-04-01T12:15:36.092Z,6.50
2018-04-01T12:18:05.499Z,6.87
2018-04-01T12:24:13.072Z,6.90
2018-04-01T12:26:42.979Z,6.60
2018-04-01T12:29:11.144Z,6.70
2018-04-01T12:31:43.262Z,5.12
2018-04-01T12:36:54.764Z,4.93
2018-04-01T12:43:01.793Z,5.47
2018-04-01T12:45:32.754Z,5.73
2018-04-01T12:48:02.410Z,5.03
2018-04-01T12:53:55.876Z,4.23
2018-04-01T12:56:28.546Z,4.70
2018-04-01T12:58:59.376Z,3.53
2018-04-01T13:01:29.978Z,4.17
2018-04-01T13:04:36.763Z,3.30
2018-04-01T13:07:10.595Z,3.70
2018-04-01T13:13:21.034Z,2.90
2018-04-01T13:23:16.469Z,3.07
2018-04-01T13:25:45.577Z,2.90
2018-04-01T13:28:25.041Z,2.77
2018-04-01T13:31:05.742Z,2.90
2018-04-01T13:33:40.640Z,2.93
2018-04-01T13:36:11.429Z,2.30
2018-04-01T13:38:42.820Z,3.85
2018-04-01T13:41:11.811Z,3.67
2018-04-01T13:49:55.877Z,3.03
2018-04-01T13:52:49.642Z,2.53
2018-04-01T13:55:36.281Z,3.22
2018-04-01T13:58:06.687Z,2.50
2018-04-01T14:00:35.239Z,2.63
2018-04-01T14:03:06.173Z,2.63
2018-04-01T14:05:36.282Z,3.08
2018-04-01T14:12:03.507Z,2.70
2018-04-01T14:14:32.084Z,3.30
2018-04-01T14:16:59.684Z,2.63
2018-04-01T14:19:27.347Z,2.85
2018-04-01T14:21:54.976Z,2.23
2018-04-01T14:24:22.671Z,2.50
2018-04-01T14:26:52.791Z,2.20
2018-04-01T14:29:20.519Z,2.00
2018-04-01T14:31:48.689Z,1.53
2018-04-01T14:34:17.089Z,1.20
2018-04-01T14:37:02.320Z,1.27
2018-04-01T14:55:51.178Z,1.20
2018-04-01T14:58:30.304Z,1.30
2018-04-01T15:08:39.769Z,1.23
2018-04-01T15:15:03.016Z,1.50
2018-04-01T15:58:54.764Z,2.37
2018-04-01T16:01:23.904Z,2.47
2018-04-01T16:04:24.034Z,3.30
2018-04-01T16:09:57.529Z,3.40
2018-04-01T16:12:25.234Z,3.20
2018-04-01T16:14:59.224Z,3.70
2018-04-01T16:17:26.874Z,3.57
2018-04-01T16:19:54.649Z,3.60
2018-04-01T16:22:22.983Z,3.40
2018-04-01T16:24:50.927Z,1.67
2018-04-01T16:27:18.574Z,1.77
2018-04-01T16:29:46.240Z,1.57
2018-04-01T16:32:13.908Z,1.80
2018-04-01T16:34:45.952Z,1.57
2018-04-01T16:37:13.663Z,1.80
2018-04-01T16:39:41.341Z,3.10
2018-04-01T16:42:16.260Z,2.23
2018-04-01T16:58:37.844Z,1.50
2018-04-01T17:05:09.040Z,2.00
2018-04-01T17:07:48.293Z,1.80
2018-04-01T17:10:16.063Z,1.70
2018-04-01T17:12:47.790Z,4.03
2018-04-01T17:15:22.897Z,3.92
2018-04-01T17:17:51.683Z,2.70
2018-04-01T17:21:09.295Z,2.30
2018-04-01T17:23:38.968Z,1.90
2018-04-01T17:26:07.805Z,2.00
2018-04-01T17:28:35.458Z,2.43
2018-04-01T17:31:05.548Z,3.50
2018-04-01T17:33:34.263Z,3.60
2018-04-01T17:36:01.963Z,3.27
2018-04-01T17:38:30.383Z,2.20
2018-04-01T17:40:58.027Z,1.57
2018-04-01T17:43:29.524Z,1.55
2018-04-01T17:46:07.131Z,1.37
2018-04-01T17:48:35.055Z,1.60
2018-04-01T17:51:02.702Z,2.27
2018-04-01T17:53:31.946Z,1.40
2018-04-01T17:56:00.059Z,2.10
2018-04-01T17:58:27.745Z,1.93
2018-04-01T18:00:55.456Z,1.60
2018-04-01T18:03:23.073Z,1.90
2018-04-01T18:05:50.713Z,2.60
2018-04-01T18:08:18.297Z,2.13
2018-04-01T18:10:45.895Z,2.10
2018-04-01T18:13:14.151Z,1.70
2018-04-01T18:15:43.090Z,1.80
2018-04-01T18:18:10.703Z,9.73
2018-04-01T18:20:38.346Z,6.03
2018-04-01T18:23:06.087Z,3.87
2018-04-01T18:25:33.774Z,33.15
2018-04-01T18:28:01.477Z,2.30
2018-04-01T18:30:29.174Z,1.93
2018-04-01T18:32:56.760Z,1.50
2018-04-01T18:35:24.415Z,1.65
2018-04-01T18:37:52.026Z,1.87
2018-04-01T18:40:19.630Z,1.97
2018-04-01T18:42:47.375Z,2.10
2018-04-01T18:45:14.989Z,2.60
2018-04-01T18:47:42.662Z,2.20
2018-04-01T18:50:10.271Z,2.03
2018-04-01T18:52:37.948Z,2.05
2018-04-01T18:55:05.580Z,2.20
2018-04-01T18:57:33.240Z,2.70
2018-04-01T19:00:00.845Z,2.20
2018-04-01T19:02:28.570Z,2.67
2018-04-01T19:04:58.936Z,2.30
2018-04-01T19:07:27.467Z,2.23
2018-04-01T19:09:55.237Z,2.80
2018-04-01T19:12:22.940Z,2.50
2018-04-01T19:14:50.868Z,2.57
2018-04-01T19:17:19.139Z,2.78
2018-04-01T19:19:47.486Z,3.07
2018-04-01T19:22:19.733Z,3.17
2018-04-01T19:24:47.980Z,4.13
2018-04-01T19:27:17.344Z,4.40
2018-04-01T19:29:45.547Z,5.63
2018-04-01T19:32:13.690Z,3.30
2018-04-01T19:34:41.953Z,5.20
2018-04-01T19:37:12.001Z,4.30
2018-04-01T19:39:40.257Z,3.43
2018-04-01T19:42:09.091Z,3.60
2018-04-01T19:44:37.325Z,3.43
2018-04-01T19:47:05.612Z,2.90
2018-04-01T19:49:33.806Z,2.60
2018-04-01T19:52:01.972Z,2.23
2018-04-01T19:54:30.120Z,3.23
2018-04-01T19:56:58.556Z,2.80
2018-04-01T19:59:26.795Z,4.00
2018-04-01T20:01:55.002Z,3.10
2018-04-01T20:04:23.131Z,3.47
2018-04-01T20:06:51.322Z,3.60
2018-04-01T20:09:19.419Z,3.12
2018-04-01T20:11:47.598Z,3.43
2018-04-01T20:14:15.989Z,3.60
2018-04-01T20:16:44.160Z,3.00
2018-04-01T20:19:12.377Z,4.33
2018-04-01T20:21:40.510Z,3.90
2018-04-01T20:24:08.702Z,4.37
2018-04-01T20:26:37.110Z,4.30
2018-04-01T20:29:05.625Z,4.27
2018-04-01T20:31:33.902Z,4.80
2018-04-01T20:34:02.111Z,3.90
2018-04-01T20:36:30.300Z,4.67
2018-04-01T20:38:58.460Z,4.50
2018-04-01T20:41:26.624Z,4.43
2018-04-01T20:43:54.785Z,4.47
2018-04-01T20:46:22.962Z,4.30
2018-04-01T20:48:51.143Z,4.30
2018-04-01T20:51:19.272Z,5.15
2018-04-01T20:53:47.423Z,5.05
2018-04-01T20:56:15.561Z,4.93
2018-04-01T20:58:43.707Z,4.77
2018-04-01T21:01:11.864Z,5.60
2018-04-01T21:03:39.992Z,6.60
2018-04-01T21:06:08.176Z,6.00
2018-04-01T21:08:36.349Z,5.20
2018-04-01T21:11:06.361Z,5.40
2018-04-01T21:13:34.587Z,4.70
2018-04-01T21:16:02.766Z,6.25
2018-04-01T21:18:30.911Z,6.60
2018-04-01T21:20:59.033Z,6.43
2018-04-01T21:23:27.221Z,6.05
2018-04-01T21:25:55.320Z,6.00
2018-04-01T21:28:23.452Z,6.82
2018-04-01T21:30:51.588Z,6.60
2018-04-01T21:33:19.746Z,7.10
2018-04-01T21:35:47.940Z,6.33
2018-04-01T21:38:16.183Z,6.50
2018-04-01T21:40:44.301Z,7.00
2018-04-01T21:43:12.483Z,6.40
2018-04-01T21:45:40.624Z,7.20
2018-04-01T21:48:08.740Z,6.73
2018-04-01T21:50:36.892Z,7.07
2018-04-01T21:53:05.028Z,6.70
2018-04-01T21:55:33.156Z,6.57
2018-04-01T21:58:01.321Z,6.95
2018-04-01T22:00:29.492Z,6.13
2018-04-01T22:02:57.608Z,7.57
2018-04-01T22:05:25.748Z,6.53
2018-04-01T22:07:53.883Z,6.20
2018-04-01T22:10:22.005Z,6.83
2018-04-01T22:12:50.141Z,6.97
2018-04-01T22:15:18.284Z,7.47
2018-04-01T22:17:46.733Z,7.30
2018-04-01T22:20:16.748Z,7.17
2018-04-01T22:22:56.552Z,7.83
2018-04-01T22:25:24.727Z,6.47
2018-04-01T22:27:53.625Z,7.00
2018-04-01T22:30:22.566Z,7.07
2018-04-01T22:32:50.691Z,7.13
2018-04-01T22:35:19.177Z,6.60
2018-04-01T22:37:47.287Z,7.83
2018-04-01T22:40:15.429Z,6.50
2018-04-01T22:42:43.580Z,7.97
2018-04-01T22:45:11.729Z,6.97
2018-04-01T22:47:39.862Z,7.43
2018-04-01T22:50:07.999Z,7.50
2018-04-01T22:52:36.206Z,7.40
2018-04-01T22:55:04.381Z,8.60
2018-04-01T22:57:32.513Z,8.97
2018-04-01T23:00:00.637Z,7.80
2018-04-01T23:02:28.745Z,8.07
2018-04-01T23:04:56.884Z,8.60
2018-04-01T23:07:24.996Z,7.47
2018-04-01T23:09:53.164Z,7.70
2018-04-01T23:12:21.306Z,7.70
2018-04-01T23:14:49.427Z,8.20
2018-04-01T23:17:17.553Z,8.07
2018-04-01T23:19:45.695Z,7.53
2018-04-01T23:22:13.803Z,7.20
2018-04-01T23:24:42.852Z,7.17
2018-04-01T23:27:10.976Z,7.25
2018-04-01T23:29:39.110Z,6.73
2018-04-01T23:32:07.225Z,7.50
2018-04-01T23:34:35.372Z,6.57
2018-04-01T23:37:03.487Z,7.37
2018-04-01T23:39:31.679Z,8.00
2018-04-01T23:41:59.885Z,7.70
2018-04-01T23:44:28.020Z,8.70
2018-04-01T23:46:56.145Z,8.60
2018-04-01T23:49:24.327Z,7.70
2018-04-01T23:51:52.504Z,8.37
2018-04-01T23:54:20.635Z,8.73
2018-04-01T23:56:48.752Z,8.50
2018-04-01T23:59:16.898Z,7.93
